KDWU

Ashland Regional Airport

Ashland, Kentucky, USA
METAR KDWU 140756Z AUTO 00000KT 10SM BKN049 03/02 A3018 RMK AO2 SLP223 T00280017 PNO $
Observed Flight Rules
Dec-14 @ 07:56 UTC (58 minutes ago) Visual Flight Rules
Visibility Clouds
10 miles
  • Broken at 4,900' AGL
Temperatures Readings
Current 3°C / 37°F
Dewpoint 2°C / 36°F
Humidity 93%
Altimeter 30.18" Hg
Pressure 1022.3 hPa
Elevation 166
METAR KDWU 140756Z AUTO 00000KT 10SM BKN049 03/02 A3018 RMK AO2 SLP223 T00280017 PNO $
Observed Flight Rules
Dec-14 @ 07:56 UTC
(58 minutes ago)
VFR
Clouds
  • Broken at 4,900' AGL
Temperature Dewpoint
3°C / 37°F 2°C / 36°F
Humidity Altimeter Pressure
93% 30.18" Hg 1022.3 hPa